Time;durP1;ratioP1;P1;durP2;ratioP2;P2;SDS_P1;SDS_P2;PMS_P1;PMS_P2;Temp;Humidity;BMP_temperature;BMP_pressure;BME280_temperature;BME280_humidity;BME280_pressure;Samples;Min_cycle;Max_cycle;Signal;HPM_P1;HPM_P2
2021/06/13 00:00:55;;;;;;;30.92;27.85;;;;;;;;;;5221311;27;21043;-85
2021/06/13 00:03:27;;;;;;;21.45;16.80;;;;;;;;;;5225054;27;20027;-85
2021/06/13 00:05:58;;;;;;;19.90;18.00;;;;;;;;;;5221540;27;20041;-86
2021/06/13 00:08:33;;;;;;;20.20;18.08;;;;;;;;;;5219990;27;20356;-86
2021/06/13 00:11:04;;;;;;;20.40;18.50;;;;;;;;;;5220342;27;20027;-85
2021/06/13 00:13:36;;;;;;;20.23;18.42;;;;;;;;;;5220188;27;20072;-86
2021/06/13 00:16:09;;;;;;;28.55;25.75;;;;;;;;;;5203219;27;20054;-86
2021/06/13 00:18:41;;;;;;;28.58;25.60;;;;;;;;;;5225701;27;20056;-86
2021/06/13 00:21:13;;;;;;;29.15;26.27;;;;;;;;;;5221305;27;20026;-85
2021/06/13 00:23:45;;;;;;;29.42;26.55;;;;;;;;;;5242088;27;20049;-86
2021/06/13 00:26:21;;;;;;;30.20;27.13;;;;;;;;;;5246329;27;20470;-86
2021/06/13 00:28:53;;;;;;;36.17;32.78;;;;;;;;;;5246542;27;20021;-86
2021/06/13 00:31:24;;;;;;;36.95;33.55;;;;;;;;;;5247223;27;20408;-87
2021/06/13 00:33:55;;;;;;;28.35;25.35;;;;;;;;;;5243569;27;20068;-85
2021/06/13 00:36:26;;;;;;;35.88;32.45;;;;;;;;;;5243629;27;20069;-86
2021/06/13 00:38:57;;;;;;;36.38;32.88;;;;;;;;;;5243027;27;20026;-86
2021/06/13 00:41:29;;;;;;;23.15;20.77;;;;;;;;;;5244423;27;20076;-86
2021/06/13 00:44:00;;;;;;;22.58;20.25;;;;;;;;;;5243455;27;20395;-83
2021/06/13 00:46:31;;;;;;;29.00;23.25;;;;;;;;;;5242313;27;20055;-86
2021/06/13 00:49:04;;;;;;;26.17;23.50;;;;;;;;;;5242746;27;20519;-85
2021/06/13 00:51:34;;;;;;;24.42;21.95;;;;;;;;;;5235112;27;20178;-86
2021/06/13 00:54:05;;;;;;;29.27;26.42;;;;;;;;;;5240863;27;20033;-86
2021/06/13 00:56:37;;;;;;;29.20;26.15;;;;;;;;;;5246104;27;20337;-86
2021/06/13 00:59:10;;;;;;;34.83;31.45;;;;;;;;;;5240499;27;20064;-86
2021/06/13 01:01:41;;;;;;;33.10;29.95;;;;;;;;;;5240280;27;20482;-85
2021/06/13 01:04:14;;;;;;;33.20;30.00;;;;;;;;;;5248753;27;20361;-86
2021/06/13 01:07:04;;;;;;;33.85;30.27;;;;;;;;;;5227381;27;20022;-87
2021/06/13 01:09:39;;;;;;;34.03;31.00;;;;;;;;;;5239019;27;20364;-85
2021/06/13 01:12:19;;;;;;;34.75;31.23;;;;;;;;;;5221471;27;20052;-86
2021/06/13 01:14:51;;;;;;;34.08;30.83;;;;;;;;;;5221817;27;20439;-86
2021/06/13 01:17:39;;;;;;;32.53;29.33;;;;;;;;;;5238722;27;20447;-85
2021/06/13 01:20:29;;;;;;;20.30;18.23;;;;;;;;;;5244042;27;20596;-86
2021/06/13 01:23:00;;;;;;;20.95;18.77;;;;;;;;;;5226563;27;20060;-86
2021/06/13 01:25:34;;;;;;;23.33;21.27;;;;;;;;;;5247822;27;20040;-86
2021/06/13 01:28:15;;;;;;;24.80;21.42;;;;;;;;;;5224740;27;20038;-86
2021/06/13 01:30:47;;;;;;;23.77;21.40;;;;;;;;;;5240413;27;20814;-87
2021/06/13 01:33:19;;;;;;;27.87;25.40;;;;;;;;;;5241832;27;20534;-86
2021/06/13 01:35:51;;;;;;;28.48;25.65;;;;;;;;;;5235182;27;20129;-85
2021/06/13 01:38:22;;;;;;;29.45;25.60;;;;;;;;;;5221000;27;20447;-87
2021/06/13 01:40:54;;;;;;;28.02;25.37;;;;;;;;;;5216249;27;20491;-87
2021/06/13 01:43:24;;;;;;;29.02;26.12;;;;;;;;;;5232119;27;20031;-86
2021/06/13 01:45:59;;;;;;;27.70;25.30;;;;;;;;;;5231976;27;20107;-86
2021/06/13 01:48:30;;;;;;;30.70;28.10;;;;;;;;;;5236635;27;20034;-86
2021/06/13 01:51:02;;;;;;;31.87;28.65;;;;;;;;;;5243198;27;20057;-85
2021/06/13 01:53:41;;;;;;;36.08;32.67;;;;;;;;;;5246011;27;20060;-87
2021/06/13 01:56:15;;;;;;;35.92;32.42;;;;;;;;;;5243776;27;20091;-86
2021/06/13 01:58:47;;;;;;;22.37;20.05;;;;;;;;;;5243773;27;20448;-86
2021/06/13 02:01:22;;;;;;;22.00;19.90;;;;;;;;;;5247283;27;20302;-87
2021/06/13 02:03:55;;;;;;;22.10;19.80;;;;;;;;;;5248819;27;20026;-85
2021/06/13 02:06:30;;;;;;;24.23;21.83;;;;;;;;;;5247139;27;20068;-85
2021/06/13 02:09:03;;;;;;;24.30;22.15;;;;;;;;;;5250398;27;20073;-86
2021/06/13 02:11:40;;;;;;;29.90;26.60;;;;;;;;;;5246791;27;20597;-85
2021/06/13 02:14:12;;;;;;;28.48;26.00;;;;;;;;;;5208225;27;20052;-85
2021/06/13 02:16:45;;;;;;;28.65;25.80;;;;;;;;;;5241605;27;20029;-86
2021/06/13 02:19:17;;;;;;;28.67;25.92;;;;;;;;;;5240140;27;20054;-85
2021/06/13 02:21:55;;;;;;;28.07;25.33;;;;;;;;;;5246415;27;20060;-84
2021/06/13 02:24:33;;;;;;;27.98;25.27;;;;;;;;;;5245216;27;20149;-85
2021/06/13 02:27:05;;;;;;;36.70;33.30;;;;;;;;;;5244827;27;20478;-84
2021/06/13 02:29:40;;;;;;;36.33;33.03;;;;;;;;;;5242758;27;20025;-85
2021/06/13 02:32:12;;;;;;;27.92;25.15;;;;;;;;;;5245306;27;20046;-86
2021/06/13 02:35:04;;;;;;;36.55;32.92;;;;;;;;;;5200131;27;20105;-86
2021/06/13 02:37:38;;;;;;;21.12;19.33;;;;;;;;;;5218546;27;20096;-85
2021/06/13 02:40:09;;;;;;;21.73;19.62;;;;;;;;;;5241511;27;20585;-86
2021/06/13 02:42:40;;;;;;;22.75;20.20;;;;;;;;;;5242487;27;20053;-85
2021/06/13 02:45:15;;;;;;;25.00;22.83;;;;;;;;;;5244030;27;20060;-86
2021/06/13 02:47:47;;;;;;;23.90;21.60;;;;;;;;;;5241043;27;20026;-85
2021/06/13 02:50:25;;;;;;;30.15;26.92;;;;;;;;;;5224450;27;20054;-86
2021/06/13 02:53:03;;;;;;;29.77;26.73;;;;;;;;;;5238500;27;20041;-85
2021/06/13 02:55:44;;;;;;;32.13;29.10;;;;;;;;;;5246748;27;20038;-85
2021/06/13 02:58:35;;;;;;;33.67;30.67;;;;;;;;;;5227279;27;20021;-85
2021/06/13 03:01:07;;;;;;;34.03;30.62;;;;;;;;;;5222303;27;20022;-84
2021/06/13 03:03:39;;;;;;;33.65;30.25;;;;;;;;;;5244145;27;20060;-84
2021/06/13 03:06:19;;;;;;;34.28;31.00;;;;;;;;;;5242879;27;20075;-84
2021/06/13 03:08:51;;;;;;;34.08;30.98;;;;;;;;;;5241651;27;20063;-85
2021/06/13 03:11:25;;;;;;;34.42;31.17;;;;;;;;;;5247799;27;20022;-95
2021/06/13 03:14:43;;;;;;;32.90;29.90;;;;;;;;;;5241216;27;20029;-96
2021/06/13 03:17:40;;;;;;;20.67;18.33;;;;;;;;;;5224504;27;20029;-94
2021/06/13 03:20:41;;;;;;;21.02;18.85;;;;;;;;;;5214033;27;20061;-96
2021/06/13 03:23:24;;;;;;;22.40;20.00;;;;;;;;;;5222314;27;20064;-94
2021/06/13 03:26:15;;;;;;;25.77;23.23;;;;;;;;;;5224095;27;20065;-94
2021/06/13 03:28:54;;;;;;;28.27;25.60;;;;;;;;;;5219530;27;20049;-95
2021/06/13 03:31:49;;;;;;;28.87;26.20;;;;;;;;;;5216325;27;20034;-94
2021/06/13 03:34:34;;;;;;;27.60;24.70;;;;;;;;;;5217650;27;20398;-95
2021/06/13 03:37:18;;;;;;;28.08;25.52;;;;;;;;;;5220244;27;20736;-93
2021/06/13 03:40:15;;;;;;;28.33;25.62;;;;;;;;;;5214068;27;20030;-95
2021/06/13 03:42:51;;;;;;;28.62;25.62;;;;;;;;;;5220721;27;20022;-95
2021/06/13 03:45:32;;;;;;;29.12;26.27;;;;;;;;;;5220965;27;20048;-95
2021/06/13 03:48:15;;;;;;;29.80;26.80;;;;;;;;;;5219260;27;20028;-94
2021/06/13 03:50:50;;;;;;;30.58;27.67;;;;;;;;;;5219348;27;20057;-95
2021/06/13 03:54:14;;;;;;;35.67;32.13;;;;;;;;;;5220977;27;20022;-94
2021/06/13 03:56:52;;;;;;;21.75;19.23;;;;;;;;;;5237830;27;20033;-94
2021/06/13 03:59:31;;;;;;;23.30;18.60;;;;;;;;;;5221021;27;20072;-96
2021/06/13 04:02:06;;;;;;;22.98;19.02;;;;;;;;;;5219844;27;20052;-94
2021/06/13 04:05:06;;;;;;;;;;;;;;;;;;;;;
2021/06/13 04:10:40;;;;;;;27.50;24.90;;;;;;;;;;5220754;27;20030;-95
2021/06/13 04:13:18;;;;;;;27.77;25.20;;;;;;;;;;5219939;27;20034;-93
2021/06/13 04:16:51;;;;;;;28.00;25.12;;;;;;;;;;5183401;27;20191;-96
2021/06/13 04:19:32;;;;;;;28.70;25.73;;;;;;;;;;5221497;27;20041;-96
2021/06/13 04:22:31;;;;;;;27.48;24.92;;;;;;;;;;5238408;27;20044;-95
2021/06/13 04:25:28;;;;;;;37.72;34.40;;;;;;;;;;5220624;27;20026;-96
2021/06/13 04:29:07;;;;;;;;;;;;;;;;;;;;;
2021/06/13 04:32:09;;;;;;;28.00;25.00;;;;;;;;;;5138092;27;20051;-95
2021/06/13 04:35:18;;;;;;;22.55;20.30;;;;;;;;;;5122651;27;20028;-94
2021/06/13 04:38:10;;;;;;;22.62;20.37;;;;;;;;;;5116419;27;20058;-96
2021/06/13 04:41:08;;;;;;;22.58;20.27;;;;;;;;;;5134349;27;20038;-95
2021/06/13 04:43:51;;;;;;;25.33;22.92;;;;;;;;;;5128371;27;20050;-94
2021/06/13 04:46:48;;;;;;;27.17;24.65;;;;;;;;;;5223683;27;20760;-94
2021/06/13 04:49:25;;;;;;;29.02;26.05;;;;;;;;;;5220150;27;20362;-94
2021/06/13 04:52:32;;;;;;;28.00;25.33;;;;;;;;;;5224696;27;20030;-95
2021/06/13 04:55:23;;;;;;;35.55;32.22;;;;;;;;;;5221296;27;20026;-95
2021/06/13 04:58:33;;;;;;;35.60;32.10;;;;;;;;;;5208732;27;20378;-95
2021/06/13 05:01:46;;;;;;;35.65;32.15;;;;;;;;;;5236787;27;20034;-94
2021/06/13 05:04:20;;;;;;;37.13;33.38;;;;;;;;;;5235786;27;20026;-96
2021/06/13 05:07:05;;;;;;;37.05;33.38;;;;;;;;;;5217228;27;20838;-95
2021/06/13 05:10:07;;;;;;;38.10;34.63;;;;;;;;;;5219041;27;20045;-95
2021/06/13 05:13:14;;;;;;;22.23;20.10;;;;;;;;;;5218625;27;20505;-94
2021/06/13 05:15:54;;;;;;;21.33;19.48;;;;;;;;;;5220458;27;20045;-96
2021/06/13 05:18:53;;;;;;;21.33;19.17;;;;;;;;;;5234825;27;20095;-94
2021/06/13 05:21:45;;;;;;;22.17;20.10;;;;;;;;;;5222313;27;20044;-93
2021/06/13 05:24:13;;;;;;;27.95;25.12;;;;;;;;;;5234113;27;20056;-93
2021/06/13 05:27:03;;;;;;;26.83;24.50;;;;;;;;;;5219700;27;20106;-94
2021/06/13 05:29:46;;;;;;;27.37;24.70;;;;;;;;;;5218633;27;20021;-95
2021/06/13 05:32:42;;;;;;;28.17;25.10;;;;;;;;;;5221209;27;20037;-96
2021/06/13 05:35:53;;;;;;;29.80;25.23;;;;;;;;;;5218920;27;20096;-94
2021/06/13 05:38:29;;;;;;;27.00;24.30;;;;;;;;;;5217514;27;20018;-95
2021/06/13 05:41:22;;;;;;;28.02;25.08;;;;;;;;;;5219274;27;20080;-95
2021/06/13 05:44:04;;;;;;;28.12;25.52;;;;;;;;;;5219802;27;20022;-94
2021/06/13 05:46:55;;;;;;;28.55;25.33;;;;;;;;;;5220026;27;20042;-95
2021/06/13 05:49:45;;;;;;;28.65;25.50;;;;;;;;;;5217962;27;20463;-95
2021/06/13 05:52:44;;;;;;;21.65;19.55;;;;;;;;;;5221242;27;20034;-94
2021/06/13 05:55:19;;;;;;;22.95;19.35;;;;;;;;;;5221222;27;20052;-95
2021/06/13 05:58:04;;;;;;;23.33;19.30;;;;;;;;;;5220491;27;20045;-96
2021/06/13 06:00:39;;;;;;;21.42;19.40;;;;;;;;;;5216824;27;20065;-94
2021/06/13 06:03:18;;;;;;;27.33;24.63;;;;;;;;;;5235747;27;20067;-95
2021/06/13 06:06:20;;;;;;;30.75;27.15;;;;;;;;;;5203762;27;20023;-95
2021/06/13 06:09:04;;;;;;;29.60;26.58;;;;;;;;;;5238226;27;20038;-93
2021/06/13 06:11:56;;;;;;;29.33;26.42;;;;;;;;;;5220253;27;20044;-95
2021/06/13 06:15:07;;;;;;;28.38;25.50;;;;;;;;;;5225585;27;20022;-95
2021/06/13 06:17:39;;;;;;;28.83;25.75;;;;;;;;;;5219085;27;20386;-95
2021/06/13 06:20:36;;;;;;;28.50;25.65;;;;;;;;;;5200623;27;20060;-93
2021/06/13 06:23:28;;;;;;;36.88;33.45;;;;;;;;;;5217366;27;20044;-94
2021/06/13 06:25:59;;;;;;;25.98;23.50;;;;;;;;;;5235419;27;20329;-96
2021/06/13 06:28:47;;;;;;;26.65;24.25;;;;;;;;;;5220566;27;20042;-94
2021/06/13 06:31:38;;;;;;;27.15;24.52;;;;;;;;;;5222601;27;20042;-94
2021/06/13 06:34:12;;;;;;;31.40;28.17;;;;;;;;;;5216821;27;20057;-95
2021/06/13 06:36:55;;;;;;;49.45;44.65;;;;;;;;;;5217093;27;20056;-95
2021/06/13 06:39:38;;;;;;;47.80;42.85;;;;;;;;;;5220110;27;20033;-95
2021/06/13 06:42:13;;;;;;;49.25;44.45;;;;;;;;;;5219312;27;20407;-94
2021/06/13 06:44:50;;;;;;;54.45;49.20;;;;;;;;;;5219069;27;20026;-94
2021/06/13 06:47:33;;;;;;;51.92;46.72;;;;;;;;;;5216464;27;20034;-94
2021/06/13 06:50:11;;;;;;;55.83;49.92;;;;;;;;;;5219205;27;20061;-96
2021/06/13 06:52:49;;;;;;;42.10;37.63;;;;;;;;;;5220379;27;20022;-94
2021/06/13 06:55:51;;;;;;;58.17;51.95;;;;;;;;;;5197792;27;20061;-95
2021/06/13 06:58:43;;;;;;;58.83;52.75;;;;;;;;;;5212797;27;20406;-96
2021/06/13 07:01:23;;;;;;;47.20;42.30;;;;;;;;;;5219398;27;20036;-95
2021/06/13 07:04:04;;;;;;;35.88;32.47;;;;;;;;;;5217578;27;20049;-95
2021/06/13 07:06:50;;;;;;;30.50;27.87;;;;;;;;;;5219925;27;20380;-95
2021/06/13 07:09:40;;;;;;;31.12;28.08;;;;;;;;;;5221017;27;20030;-95
2021/06/13 07:12:25;;;;;;;30.33;27.50;;;;;;;;;;5221216;27;20044;-95
2021/06/13 07:14:58;;;;;;;32.75;29.75;;;;;;;;;;5217585;27;20824;-94
2021/06/13 07:17:50;;;;;;;31.80;28.80;;;;;;;;;;5219718;27;20040;-96
2021/06/13 07:20:45;;;;;;;31.27;28.33;;;;;;;;;;5188733;27;20026;-95
2021/06/13 07:23:24;;;;;;;32.20;28.75;;;;;;;;;;5219113;27;20042;-95
2021/06/13 07:26:03;;;;;;;29.90;27.10;;;;;;;;;;5219514;27;20020;-94
2021/06/13 07:28:55;;;;;;;30.02;27.50;;;;;;;;;;5237998;27;20029;-94
2021/06/13 07:31:38;;;;;;;31.25;28.35;;;;;;;;;;5219079;27;20068;-94
2021/06/13 07:34:09;;;;;;;31.10;27.90;;;;;;;;;;5216823;27;20026;-94
2021/06/13 07:40:25;;;;;;;30.58;27.73;;;;;;;;;;4441091;31;20049;-85
2021/06/13 07:42:56;;;;;;;28.87;26.17;;;;;;;;;;4412798;32;20130;-86
2021/06/13 07:45:27;;;;;;;30.77;28.08;;;;;;;;;;4432928;32;20161;-85
2021/06/13 07:47:58;;;;;;;30.70;27.77;;;;;;;;;;4421097;32;20078;-85
2021/06/13 07:50:29;;;;;;;28.73;26.00;;;;;;;;;;4418250;32;20768;-84
2021/06/13 07:53:01;;;;;;;29.60;26.87;;;;;;;;;;4412833;32;20489;-85
2021/06/13 07:55:31;;;;;;;31.87;28.75;;;;;;;;;;4416750;32;20136;-85
2021/06/13 07:58:04;;;;;;;31.95;28.83;;;;;;;;;;4417647;32;20149;-85
2021/06/13 08:00:34;;;;;;;31.15;28.52;;;;;;;;;;4399756;32;20079;-86
2021/06/13 08:03:06;;;;;;;35.13;31.92;;;;;;;;;;4419481;32;20100;-84
2021/06/13 08:05:35;;;;;;;33.65;30.50;;;;;;;;;;4417230;32;20530;-85
2021/06/13 08:08:06;;;;;;;34.13;30.88;;;;;;;;;;4418017;32;20440;-84
2021/06/13 08:10:39;;;;;;;32.78;29.77;;;;;;;;;;4409928;32;20097;-86
2021/06/13 08:13:12;;;;;;;30.75;27.73;;;;;;;;;;4423306;32;20540;-86
2021/06/13 08:15:43;;;;;;;31.80;29.02;;;;;;;;;;4413907;32;20178;-85
2021/06/13 08:18:14;;;;;;;31.23;28.17;;;;;;;;;;4424001;32;20184;-84
2021/06/13 08:20:45;;;;;;;30.98;28.30;;;;;;;;;;4428425;32;20504;-84
2021/06/13 08:23:16;;;;;;;33.42;30.23;;;;;;;;;;4405866;32;20089;-88
2021/06/13 08:25:49;;;;;;;29.35;26.70;;;;;;;;;;4405365;32;20097;-85
2021/06/13 08:28:20;;;;;;;29.90;27.00;;;;;;;;;;4422276;32;20085;-86
2021/06/13 08:30:50;;;;;;;30.35;27.30;;;;;;;;;;4408209;32;20160;-84
2021/06/13 08:33:23;;;;;;;29.12;26.23;;;;;;;;;;4425629;32;20845;-84
2021/06/13 08:35:54;;;;;;;30.55;27.60;;;;;;;;;;4395426;32;20316;-84
2021/06/13 08:38:24;;;;;;;29.50;26.80;;;;;;;;;;4403640;32;20156;-84
2021/06/13 08:40:55;;;;;;;30.88;27.58;;;;;;;;;;4408477;32;20109;-84
2021/06/13 08:43:24;;;;;;;32.50;29.10;;;;;;;;;;4421915;32;20083;-85
2021/06/13 08:45:57;;;;;;;31.30;27.67;;;;;;;;;;4426772;32;20133;-85
2021/06/13 08:48:29;;;;;;;32.20;29.30;;;;;;;;;;4413255;32;20585;-83
2021/06/13 08:50:58;;;;;;;32.03;28.85;;;;;;;;;;4403451;32;20762;-85
2021/06/13 08:53:29;;;;;;;31.67;28.52;;;;;;;;;;4408834;32;20505;-83
2021/06/13 08:55:58;;;;;;;30.95;28.00;;;;;;;;;;4402338;32;20818;-84
2021/06/13 08:58:27;;;;;;;29.60;26.48;;;;;;;;;;4398766;32;20994;-85
2021/06/13 09:01:00;;;;;;;36.23;32.67;;;;;;;;;;4401120;32;20046;-83
2021/06/13 09:03:29;;;;;;;32.28;29.17;;;;;;;;;;4409913;32;20102;-84
2021/06/13 09:06:00;;;;;;;39.38;35.58;;;;;;;;;;4413496;32;20118;-84
2021/06/13 09:08:35;;;;;;;81.78;74.50;;;;;;;;;;4394767;32;20247;-83
2021/06/13 09:11:07;;;;;;;31.20;28.02;;;;;;;;;;4409133;32;20058;-85
2021/06/13 09:13:42;;;;;;;51.08;46.42;;;;;;;;;;4399252;32;20786;-84
2021/06/13 09:16:13;;;;;;;29.10;26.23;;;;;;;;;;4397718;32;20174;-85
2021/06/13 09:18:45;;;;;;;28.65;25.88;;;;;;;;;;4405368;32;20121;-85
2021/06/13 09:21:23;;;;;;;36.85;33.33;;;;;;;;;;4402812;32;20081;-84
2021/06/13 09:23:54;;;;;;;38.97;35.22;;;;;;;;;;4416044;32;20126;-84
2021/06/13 09:26:26;;;;;;;52.47;47.38;;;;;;;;;;4409703;32;20691;-83
2021/06/13 09:28:58;;;;;;;57.67;52.22;;;;;;;;;;4403564;32;20121;-86
2021/06/13 09:31:31;;;;;;;50.50;45.35;;;;;;;;;;4394854;32;20121;-84
2021/06/13 09:34:05;;;;;;;51.83;47.28;;;;;;;;;;4411847;32;20198;-85
2021/06/13 09:36:35;;;;;;;37.00;33.55;;;;;;;;;;4393952;32;20136;-82
2021/06/13 09:39:08;;;;;;;56.85;51.10;;;;;;;;;;4395821;32;20114;-85
2021/06/13 09:41:42;;;;;;;39.88;36.13;;;;;;;;;;4401169;32;20158;-84
2021/06/13 09:44:15;;;;;;;44.55;40.53;;;;;;;;;;4420468;32;20053;-84
2021/06/13 09:46:45;;;;;;;37.53;34.20;;;;;;;;;;4394143;32;20534;-84
2021/06/13 09:49:17;;;;;;;40.58;36.92;;;;;;;;;;4409097;32;20074;-84
2021/06/13 09:51:49;;;;;;;37.17;33.30;;;;;;;;;;4410174;32;20574;-84
2021/06/13 09:54:21;;;;;;;32.15;29.33;;;;;;;;;;4414621;32;20084;-87
2021/06/13 09:56:53;;;;;;;24.17;20.42;;;;;;;;;;4416092;32;20105;-84
2021/06/13 09:59:35;;;;;;;15.25;13.95;;;;;;;;;;4418619;32;20066;-84
2021/06/13 10:02:09;;;;;;;9.45;6.78;;;;;;;;;;4410980;32;20444;-85
2021/06/13 10:04:40;;;;;;;6.07;2.08;;;;;;;;;;4411950;32;20054;-86
2021/06/13 10:07:17;;;;;;;3.70;1.40;;;;;;;;;;4403459;32;20468;-84
2021/06/13 10:09:50;;;;;;;7.75;1.75;;;;;;;;;;4402336;32;20689;-85
2021/06/13 10:12:21;;;;;;;6.22;1.83;;;;;;;;;;4415679;32;20638;-84
2021/06/13 10:14:52;;;;;;;4.55;1.40;;;;;;;;;;4402113;32;20083;-84
2021/06/13 10:17:32;;;;;;;7.15;1.50;;;;;;;;;;4407192;32;20097;-84
2021/06/13 10:20:04;;;;;;;6.47;1.83;;;;;;;;;;4403567;32;21220;-88
2021/06/13 10:22:35;;;;;;;5.28;1.60;;;;;;;;;;4416501;32;20758;-85
2021/06/13 10:25:04;;;;;;;5.43;1.52;;;;;;;;;;4416114;32;20125;-84
2021/06/13 10:27:33;;;;;;;6.35;1.77;;;;;;;;;;4407554;32;20121;-85
2021/06/13 10:30:05;;;;;;;14.10;1.75;;;;;;;;;;4412111;32;20098;-84
2021/06/13 10:32:34;;;;;;;10.45;2.00;;;;;;;;;;4419656;32;20456;-85
2021/06/13 10:35:06;;;;;;;7.80;2.03;;;;;;;;;;4416079;32;20149;-86
2021/06/13 10:37:37;;;;;;;8.52;1.62;;;;;;;;;;4407029;32;20168;-85
2021/06/13 10:40:08;;;;;;;7.97;1.52;;;;;;;;;;4410989;32;20121;-84
2021/06/13 10:42:39;;;;;;;7.37;2.12;;;;;;;;;;4417740;32;20906;-85
2021/06/13 10:45:11;;;;;;;8.52;1.70;;;;;;;;;;4417113;32;20137;-85
2021/06/13 10:48:02;;;;;;;4.03;1.42;;;;;;;;;;4403430;32;20897;-84
2021/06/13 10:50:34;;;;;;;10.65;1.85;;;;;;;;;;4410901;32;20101;-86
2021/06/13 10:53:06;;;;;;;5.00;1.42;;;;;;;;;;4416274;32;20610;-85
2021/06/13 10:55:52;;;;;;;4.90;1.45;;;;;;;;;;4419161;32;21357;-85
2021/06/13 10:58:41;;;;;;;4.82;1.52;;;;;;;;;;4420154;32;20057;-83
2021/06/13 11:01:25;;;;;;;6.55;1.52;;;;;;;;;;4404315;32;20516;-85
2021/06/13 11:04:01;;;;;;;6.97;1.27;;;;;;;;;;4419744;32;20336;-83
2021/06/13 11:06:37;;;;;;;7.20;1.52;;;;;;;;;;4417760;32;20109;-84
2021/06/13 11:09:13;;;;;;;4.72;1.40;;;;;;;;;;4394220;32;20132;-84
2021/06/13 11:11:44;;;;;;;12.43;1.83;;;;;;;;;;4396297;32;20094;-85
2021/06/13 11:14:32;;;;;;;6.47;1.48;;;;;;;;;;4400416;32;20106;-84
2021/06/13 11:17:03;;;;;;;4.93;1.15;;;;;;;;;;4410651;32;20117;-83
2021/06/13 11:19:35;;;;;;;8.30;1.98;;;;;;;;;;4408716;32;20437;-84
2021/06/13 11:22:26;;;;;;;6.80;1.70;;;;;;;;;;4416210;32;20050;-84
2021/06/13 11:24:56;;;;;;;8.73;1.60;;;;;;;;;;4417366;32;20085;-86
2021/06/13 11:27:25;;;;;;;5.37;1.55;;;;;;;;;;4412411;32;20119;-84
2021/06/13 11:29:57;;;;;;;7.47;1.52;;;;;;;;;;4414391;32;20076;-85
2021/06/13 11:32:44;;;;;;;6.70;1.67;;;;;;;;;;4413003;32;20089;-84
2021/06/13 11:35:30;;;;;;;5.57;1.70;;;;;;;;;;4414115;32;20058;-84
2021/06/13 11:38:14;;;;;;;7.87;1.50;;;;;;;;;;4410357;32;20159;-85
2021/06/13 11:40:49;;;;;;;12.50;2.58;;;;;;;;;;4424750;32;20085;-85
2021/06/13 11:43:22;;;;;;;10.13;1.70;;;;;;;;;;4412429;32;20349;-85
2021/06/13 11:46:06;;;;;;;8.52;1.55;;;;;;;;;;4409020;32;20084;-82
2021/06/13 11:48:39;;;;;;;7.28;1.33;;;;;;;;;;4413135;32;20093;-87
2021/06/13 11:51:12;;;;;;;15.50;2.10;;;;;;;;;;4406344;32;20080;-85
2021/06/13 11:53:47;;;;;;;9.45;1.62;;;;;;;;;;4419817;32;20123;-86
2021/06/13 11:56:36;;;;;;;6.22;1.62;;;;;;;;;;4414500;32;20099;-86
2021/06/13 11:59:11;;;;;;;8.57;1.45;;;;;;;;;;4414034;32;20062;-84
2021/06/13 12:01:40;;;;;;;7.12;1.40;;;;;;;;;;4417587;32;20078;-85
2021/06/13 12:04:16;;;;;;;6.53;1.48;;;;;;;;;;4401088;32;20109;-84
2021/06/13 12:06:47;;;;;;;7.03;1.23;;;;;;;;;;4412731;32;20117;-85
2021/06/13 12:09:17;;;;;;;6.00;1.50;;;;;;;;;;4402325;32;20160;-85
2021/06/13 12:11:50;;;;;;;16.08;1.58;;;;;;;;;;4413860;32;20135;-84
2021/06/13 12:14:26;;;;;;;5.68;1.20;;;;;;;;;;4408793;32;20139;-84
2021/06/13 12:16:56;;;;;;;10.05;1.40;;;;;;;;;;4414197;32;20049;-84
2021/06/13 12:19:35;;;;;;;26.33;3.45;;;;;;;;;;4409817;32;20141;-87
2021/06/13 12:27:37;;;;;;;6.05;1.65;;;;;;;;;;4418296;32;20465;-85
2021/06/13 12:30:12;;;;;;;8.90;1.50;;;;;;;;;;4421782;32;20054;-86
2021/06/13 12:32:52;;;;;;;4.75;1.50;;;;;;;;;;4415620;32;20068;-87
2021/06/13 12:35:26;;;;;;;5.28;1.30;;;;;;;;;;4403753;32;20317;-85
2021/06/13 12:38:12;;;;;;;8.43;1.90;;;;;;;;;;4417494;32;20084;-85
2021/06/13 12:40:41;;;;;;;;;;;;;;;;;;4408799;32;20171;-87
2021/06/13 12:43:10;;;;;;;5.47;1.62;;;;;;;;;;4404117;32;20023;-84
2021/06/13 12:45:42;;;;;;;9.48;1.87;;;;;;;;;;4398223;32;20118;-85
2021/06/13 12:48:14;;;;;;;8.75;1.48;;;;;;;;;;4403651;32;22739;-84
2021/06/13 12:50:45;;;;;;;5.18;1.73;;;;;;;;;;4405502;32;20062;-85
2021/06/13 12:53:17;;;;;;;6.70;1.67;;;;;;;;;;4400934;32;20136;-85
2021/06/13 12:55:54;;;;;;;6.68;1.60;;;;;;;;;;4413813;32;20606;-86
2021/06/13 12:58:22;;;;;;;7.10;1.73;;;;;;;;;;4390646;32;20566;-85
2021/06/13 13:01:00;;;;;;;8.20;1.73;;;;;;;;;;4412314;32;20106;-85
2021/06/13 13:03:39;;;;;;;5.93;1.95;;;;;;;;;;4417350;32;20102;-85
2021/06/13 13:06:11;;;;;;;4.12;1.40;;;;;;;;;;4412455;32;20410;-84
2021/06/13 13:08:45;;;;;;;5.62;1.60;;;;;;;;;;4417487;32;20095;-84
2021/06/13 13:11:24;;;;;;;8.45;1.58;;;;;;;;;;4418842;32;20071;-85
2021/06/13 13:13:59;;;;;;;7.45;1.60;;;;;;;;;;4421239;32;20127;-84
2021/06/13 13:16:37;;;;;;;6.40;1.50;;;;;;;;;;4412728;32;20464;-83
2021/06/13 13:19:09;;;;;;;6.15;1.70;;;;;;;;;;4410824;32;20122;-85
2021/06/13 13:21:39;;;;;;;4.53;1.50;;;;;;;;;;4406677;32;20065;-85
2021/06/13 13:24:32;;;;;;;7.62;1.58;;;;;;;;;;4417109;32;20428;-85
2021/06/13 13:27:08;;;;;;;6.18;1.48;;;;;;;;;;4407063;32;20182;-85
2021/06/13 13:29:42;;;;;;;26.70;3.00;;;;;;;;;;4413242;32;20086;-86
2021/06/13 13:32:13;;;;;;;34.95;3.70;;;;;;;;;;4405635;32;20495;-88
2021/06/13 13:34:48;;;;;;;5.60;1.60;;;;;;;;;;4420302;32;22109;-86
2021/06/13 13:37:19;;;;;;;5.43;1.33;;;;;;;;;;4413987;32;20113;-86
2021/06/13 13:39:48;;;;;;;8.15;1.80;;;;;;;;;;4400627;32;20561;-86
2021/06/13 13:42:22;;;;;;;6.57;1.73;;;;;;;;;;4416289;32;20117;-84
2021/06/13 13:44:52;;;;;;;5.65;1.50;;;;;;;;;;4413739;32;20459;-85
2021/06/13 13:47:23;;;;;;;8.98;1.80;;;;;;;;;;4418474;32;20054;-84
2021/06/13 13:50:01;;;;;;;8.63;1.60;;;;;;;;;;4417012;32;20065;-85
2021/06/13 13:52:32;;;;;;;7.30;1.83;;;;;;;;;;4409380;32;20462;-85
2021/06/13 13:55:05;;;;;;;7.90;1.52;;;;;;;;;;4419995;32;20229;-85
2021/06/13 13:57:43;;;;;;;6.40;1.58;;;;;;;;;;4409893;32;20050;-86
2021/06/13 14:00:15;;;;;;;5.62;1.55;;;;;;;;;;4409007;32;20156;-83
2021/06/13 14:02:47;;;;;;;4.43;1.60;;;;;;;;;;4414686;32;20061;-85
2021/06/13 14:05:18;;;;;;;4.95;1.30;;;;;;;;;;4430092;32;20134;-87
2021/06/13 14:07:47;;;;;;;5.75;1.60;;;;;;;;;;4420202;32;20381;-87
2021/06/13 14:10:18;;;;;;;4.53;1.30;;;;;;;;;;4406111;32;20527;-86
2021/06/13 14:12:49;;;;;;;6.50;1.08;;;;;;;;;;4403328;32;20080;-85
2021/06/13 14:15:20;;;;;;;4.68;1.42;;;;;;;;;;4422821;32;20506;-86
2021/06/13 14:17:49;;;;;;;6.00;1.58;;;;;;;;;;4415846;32;20120;-86
2021/06/13 14:20:19;;;;;;;4.47;1.40;;;;;;;;;;4416557;32;20832;-84
2021/06/13 14:22:50;;;;;;;7.68;1.85;;;;;;;;;;4411514;32;20875;-86
2021/06/13 14:25:23;;;;;;;12.73;2.37;;;;;;;;;;4400495;32;20494;-85
2021/06/13 14:27:54;;;;;;;4.25;1.25;;;;;;;;;;4411957;32;20463;-85
2021/06/13 14:30:26;;;;;;;6.12;1.30;;;;;;;;;;4413337;32;20080;-85
2021/06/13 14:32:56;;;;;;;5.93;1.35;;;;;;;;;;4414902;32;20180;-86
2021/06/13 14:35:25;;;;;;;5.50;1.20;;;;;;;;;;4401753;32;20167;-86
2021/06/13 14:37:56;;;;;;;4.65;1.17;;;;;;;;;;4408319;32;20533;-84
2021/06/13 14:40:28;;;;;;;6.00;1.60;;;;;;;;;;4417230;32;20148;-84
2021/06/13 14:42:59;;;;;;;4.97;1.25;;;;;;;;;;4412901;32;20713;-84
2021/06/13 14:45:31;;;;;;;4.05;1.02;;;;;;;;;;4411842;32;20109;-84
2021/06/13 14:48:01;;;;;;;5.75;1.42;;;;;;;;;;4412116;32;20167;-85
2021/06/13 14:50:33;;;;;;;6.53;1.75;;;;;;;;;;4414767;32;20117;-86
2021/06/13 14:53:01;;;;;;;5.55;1.40;;;;;;;;;;4411817;32;20097;-85
2021/06/13 14:55:35;;;;;;;13.00;2.08;;;;;;;;;;4406319;32;20180;-87
2021/06/13 14:58:06;;;;;;;5.65;1.65;;;;;;;;;;4400195;32;20515;-82
2021/06/13 15:00:37;;;;;;;5.50;1.50;;;;;;;;;;4402555;32;20126;-85
2021/06/13 15:03:09;;;;;;;6.28;1.42;;;;;;;;;;4409010;32;20066;-84
2021/06/13 15:05:38;;;;;;;4.47;1.40;;;;;;;;;;4417176;32;20084;-84
2021/06/13 15:08:09;;;;;;;5.35;1.27;;;;;;;;;;4418831;32;20173;-83
2021/06/13 15:10:40;;;;;;;5.68;1.42;;;;;;;;;;4415679;32;20050;-84
2021/06/13 15:13:11;;;;;;;17.00;2.42;;;;;;;;;;4419071;32;20054;-85
2021/06/13 15:15:43;;;;;;;4.03;1.50;;;;;;;;;;4423915;32;20076;-83
2021/06/13 15:18:14;;;;;;;6.57;1.45;;;;;;;;;;4420276;32;20395;-86
2021/06/13 15:20:45;;;;;;;9.27;1.58;;;;;;;;;;4424974;32;20056;-85
2021/06/13 15:23:17;;;;;;;5.15;1.33;;;;;;;;;;4403826;32;20185;-85
2021/06/13 15:25:46;;;;;;;4.68;1.35;;;;;;;;;;4408423;32;20575;-85
2021/06/13 15:28:19;;;;;;;5.25;1.33;;;;;;;;;;4407381;32;20105;-85
2021/06/13 15:30:48;;;;;;;46.47;3.70;;;;;;;;;;4419699;32;20066;-85
2021/06/13 15:33:19;;;;;;;5.37;1.40;;;;;;;;;;4415229;32;20429;-84
2021/06/13 15:35:51;;;;;;;4.70;1.20;;;;;;;;;;4421877;32;20500;-85
2021/06/13 15:38:22;;;;;;;6.80;1.60;;;;;;;;;;4400538;32;20113;-85
2021/06/13 15:40:51;;;;;;;4.68;1.20;;;;;;;;;;4406101;32;20502;-83